Ship Status Report: callsign BAREU66

sailwx.info

Track history (hours):
 
Tides and Currents Weather Stations Pressure Air Temp Water Temp Dewpoint Dewpoint Depression Visibility Wind Speed Wind Dir Waves Ship Positions

Callsign BAREU66 (name unknown)

Last reported at 2017-Oct-19 19:00 UTC. Time now 2017-Oct-19 19:58 UTC.
Position N 18°06' W 061°12'.

Barometer 1015.8 mb

Date/timePositionNaut miles runAvg speedWind from/ knotsBaromVisibWave heightAir tempDewpointWater temp
2017-Oct-19 19:00N 18°06' W 061°12'2423.6 1015.8
2017-Oct-19 18:00N 18°12' W 060°48'1818.1 1016.3
2017-Oct-19 17:00N 18°18' W 060°30'2625.7 1017.2
2017-Oct-19 16:00N 18°30' W 060°06'1818.1 1018.3
2017-Oct-19 15:00N 18°36' W 059°48'2423.5 1019.3
2017-Oct-19 14:00N 18°42' W 059°24'2120.8 1019.9
2017-Oct-19 13:00N 18°54' W 059°06'2323.5 1019.9
2017-Oct-19 12:00N 19°00' W 058°42'2323.5 1019.3
2017-Oct-19 11:00N 19°06' W 058°18'1818.0 1019.0
2017-Oct-19 10:00N 19°12' W 058°00'2625.6 1018.7
2017-Oct-19 09:00N 19°24' W 057°36'2323.4 1018.3
2017-Oct-19 08:00N 19°30' W 057°12'1818.0 1018.4
2017-Oct-19 07:00N 19°36' W 056°54'2323.4 1018.9
2017-Oct-19 06:00N 19°42' W 056°30'2323.4 1019.4
2017-Oct-19 05:00N 19°48' W 056°06'2120.7 1019.9
2017-Oct-19 04:00N 20°00' W 055°48'2323.3 1020.6
2017-Oct-19 03:00N 20°06' W 055°24'2323.3 1021.2
2017-Oct-19 02:00N 20°12' W 055°00'1817.9 1021.5
2017-Oct-19 01:00N 20°18' W 054°42'2323.3 1021.6
2017-Oct-19 00:00N 20°24' W 054°18'2525.5 1021.2
2017-Oct-18 23:00N 20°36' W 053°54'1817.9 1020.9
2017-Oct-18 22:00N 20°42' W 053°36'2323.2 1020.2
2017-Oct-18 21:00N 20°48' W 053°12'2323.2 1019.9
2017-Oct-18 20:00N 20°54' W 052°48'1817.8 1019.6
2017-Oct-18 19:00N 21°00' W 052°30'2525.4 1019.8
2017-Oct-18 18:00N 21°12' W 052°06'2323.2 1019.9
2017-Oct-18 17:00N 21°18' W 051°42'1817.8 1020.5
2017-Oct-18 16:00N 21°24' W 051°24'2323.1 1021.2
2017-Oct-18 15:00N 21°30' W 051°00'2323.1 1021.8
2017-Oct-18 14:00N 21°36' W 050°36'1817.8 1022.4
2017-Oct-18 13:00N 21°42' W 050°18'2323.1 1022.9
2017-Oct-18 12:00N 21°48' W 049°54'2323.1 1023.0
2017-Oct-18 11:00N 21°54' W 049°30'1817.7 1022.5
2017-Oct-18 10:00N 22°00' W 049°12'2323.0 1022.3
2017-Oct-18 09:00N 22°06' W 048°48'2323.0 1021.8
2017-Oct-18 08:00N 22°12' W 048°24'2323.0 1021.8
2017-Oct-18 07:00N 22°18' W 048°00'2323.0 1021.8
2017-Oct-18 06:00N 22°24' W 047°36'1817.7 1021.8
2017-Oct-18 05:00N 22°30' W 047°18'2323.0 1022.4
2017-Oct-18 04:00N 22°36' W 046°54'2525.2 1022.9
2017-Oct-18 03:00N 22°48' W 046°30'2322.9 1023.4
2017-Oct-18 02:00N 22°54' W 046°06'2222.1 1023.6
2017-Oct-18 01:00N 22°54' W 045°42'2525.1 1024.1
2017-Oct-18 00:00N 23°06' W 045°18'1817.6 1024.3
2017-Oct-17 23:00N 23°12' W 045°00'2322.9 1024.4
2017-Oct-17 22:00N 23°18' W 044°36'2322.8 1024.1
2017-Oct-17 21:00N 23°24' W 044°12'2222.0 1023.6
2017-Oct-17 20:00N 23°24' W 043°48'2322.8 1023.4
2017-Oct-17 19:00N 23°30' W 043°24'2322.8 1023.4
2017-Oct-17 18:00N 23°36' W 043°00'2322.8 1023.4
2017-Oct-17 17:00N 23°42' W 042°36'1817.5 1023.6
2017-Oct-17 16:00N 23°48' W 042°18'2322.8 1024.4
2017-Oct-17 15:00N 23°54' W 041°54'2322.7 1025.1
2017-Oct-17 14:00N 24°00' W 041°30'2322.7 1025.9
2017-Oct-17 13:00N 24°06' W 041°06'2322.7 1026.3
2017-Oct-17 12:00N 24°12' W 040°42'2322.7 1025.8
2017-Oct-17 11:00N 24°18' W 040°18'2322.7 1026.0
2017-Oct-17 10:00N 24°24' W 039°54'2221.9 1025.5
2017-Oct-17 09:00N 24°24' W 039°30'2322.7 1025.0
2017-Oct-17 08:00N 24°30' W 039°06'2322.6 1024.7
2017-Oct-17 07:00N 24°36' W 038°42'2322.6 1024.6
2017-Oct-17 06:00N 24°42' W 038°18'2221.8 1024.6
2017-Oct-17 05:00N 24°42' W 037°54'1717.4 1024.9
2017-Oct-17 04:00N 24°48' W 037°36'2322.6 1025.3
2017-Oct-17 03:00N 24°54' W 037°12'2322.6 1025.7
2017-Oct-17 02:00N 25°00' W 036°48'2322.6 1025.9
2017-Oct-17 01:00N 25°06' W 036°24'2221.7 1026.0
2017-Oct-17 00:00N 25°06' W 036°00'2322.5 1026.1
2017-Oct-16 23:00N 25°12' W 035°36'2322.5 1026.1
2017-Oct-16 22:00N 25°18' W 035°12'2322.5 1025.8
2017-Oct-16 21:00N 25°24' W 034°48'2221.7 1025.5
2017-Oct-16 20:00N 25°24' W 034°24'2222.5 1025.1
2017-Oct-16 19:00N 25°30' W 034°00'2222.5 1024.6
2017-Oct-16 18:00N 25°36' W 033°36'2221.6 1024.6
2017-Oct-16 17:00N 25°36' W 033°12'2222.5 1024.8
2017-Oct-16 16:00N 25°42' W 032°48'4421.8 1024.8
2017-Oct-16 14:00N 25°48' W 032°00'2222.4 1025.5
2017-Oct-16 13:00N 25°54' W 031°36'2222.4 1025.8
2017-Oct-16 12:00N 26°00' W 031°12'2221.6 1026.3
2017-Oct-16 11:00N 26°00' W 030°48'2222.4 1025.7
2017-Oct-16 10:00N 26°06' W 030°24'2221.6 1025.0
2017-Oct-16 09:00N 26°06' W 030°00'2222.4 1024.2
2017-Oct-16 08:00N 26°12' W 029°36'2222.3 1023.6
2017-Oct-16 07:00N 26°18' W 029°12'2221.5 1023.1
2017-Oct-16 06:00N 26°18' W 028°48'2222.3 1022.7
2017-Oct-16 05:00N 26°24' W 028°24'2121.5 1022.2
2017-Oct-16 04:00N 26°24' W 028°00'2222.3 1022.2
2017-Oct-16 03:00N 26°30' W 027°36'2121.5 1022.4
2017-Oct-16 02:00N 26°30' W 027°12'2222.3 1022.6
2017-Oct-16 01:00N 26°36' W 026°48'2121.5 1022.6
2017-Oct-16 00:00N 26°36' W 026°24'2727.5 1022.6
2017-Oct-15 23:00N 26°42' W 025°54'2121.4 1022.6
2017-Oct-15 22:00N 26°42' W 025°30'2222.3 1022.3
2017-Oct-15 21:00N 26°48' W 025°06'2121.4 1021.5
2017-Oct-15 20:00N 26°48' W 024°42'2121.4 1020.8
2017-Oct-15 19:00N 26°48' W 024°18'2222.2 1020.2
2017-Oct-15 18:00N 26°54' W 023°54'2121.4 1019.9
2017-Oct-15 17:00N 26°54' W 023°30'2222.2 1019.6
2017-Oct-15 16:00N 27°00' W 023°06'2121.4 1019.7
2017-Oct-15 15:00N 27°00' W 022°42'2121.4 1019.8
2017-Oct-15 14:00N 27°00' W 022°18'2727.4 1019.9
2017-Oct-15 13:00N 27°06' W 021°48'2121.4 1020.4
2017-Oct-15 12:00N 27°06' W 021°24'2121.4 1020.7
2017-Oct-15 11:00N 27°06' W 021°00'2222.2 1020.6
2017-Oct-15 10:00N 27°12' W 020°36'2121.3 1020.1
2017-Oct-15 09:00N 27°12' W 020°12'2121.3 1019.5
2017-Oct-15 08:00N 27°12' W 019°48'2222.2 1018.7
2017-Oct-15 07:00N 27°18' W 019°24'2121.3 1018.0
2017-Oct-15 06:00N 27°18' W 019°00'2121.3 1017.4
2017-Oct-15 05:00N 27°18' W 018°36'2121.3 1016.6
2017-Oct-15 04:00N 27°18' W 018°12'2222.1 1016.6
2017-Oct-15 03:00N 27°24' W 017°48'2121.3 1017.2
2017-Oct-15 02:00N 27°24' W 017°24'2222.1 1017.6
2017-Oct-15 01:00N 27°30' W 017°00'2121.3 1018.0
2017-Oct-15 00:00N 27°30' W 016°36'2222.1 1018.4
2017-Oct-14 23:00N 27°36' W 016°12'2121.3 1018.7
2017-Oct-14 22:00N 27°36' W 015°48'2222.1 1019.0
2017-Oct-14 21:00N 27°42' W 015°24'1918.8 1018.7
2017-Oct-14 20:00N 28°00' W 015°18'8 4.0 1018.7
2017-Oct-14 18:00N 28°06' W 015°24'0 0.0 1019.1
2017-Oct-14 08:00N 28°06' W 015°24'8 8.0 1018.9
2017-Oct-14 07:00N 28°12' W 015°18'2019.9 1017.9
2017-Oct-14 06:00N 28°24' W 015°00'2424.0 1017.1
2017-Oct-14 05:00N 28°42' W 014°42'1616.0 1017.3
2017-Oct-14 04:00N 28°54' W 014°30'2423.9 1016.7
2017-Oct-14 03:00N 29°12' W 014°12'2423.9 1018.0
2017-Oct-14 02:00N 29°30' W 013°54'2423.8 1018.7
2017-Oct-14 01:00N 29°48' W 013°36'2019.7 1019.4
2017-Oct-14 00:00N 30°00' W 013°18'2423.8 1019.9
2017-Oct-13 23:00N 30°18' W 013°00'2019.6 1019.9
2017-Oct-13 22:00N 30°30' W 012°42'2423.7 1020.2
2017-Oct-13 21:00N 30°48' W 012°24'2019.6 1019.9
2017-Oct-13 20:00N 31°00' W 012°06'2423.7 1020.2
2017-Oct-13 19:00N 31°18' W 011°48'1919.5 1020.3
2017-Oct-13 18:00N 31°30' W 011°30'2423.6 1020.6
2017-Oct-13 17:00N 31°48' W 011°12'2423.6 1020.7
2017-Oct-13 16:00N 32°06' W 010°54'1919.4 1020.9
2017-Oct-13 15:00N 32°18' W 010°36'2423.6 1020.8
2017-Oct-13 14:00N 32°36' W 010°18'1919.3 1020.9
2017-Oct-13 13:00N 32°48' W 010°00'2323.5 1021.4
2017-Oct-13 12:00N 33°06' W 009°42'1919.3 1022.0
2017-Oct-13 11:00N 33°18' W 009°24'2323.4 1022.4
2017-Oct-13 10:00N 33°36' W 009°06'1919.2 1022.5
2017-Oct-13 09:00N 33°48' W 008°48'2323.4 1022.6
2017-Oct-13 08:00N 34°06' W 008°30'2323.4 1022.6
2017-Oct-13 07:00N 34°24' W 008°12'1919.1 1021.9
2017-Oct-13 06:00N 34°36' W 007°54'2323.3 1022.0
2017-Oct-13 05:00N 34°54' W 007°36'2726.6 1022.2
2017-Oct-13 04:00N 35°12' W 007°12'1919.0 1021.8
2017-Oct-13 03:00N 35°24' W 006°54'2322.9 1021.7
2017-Oct-13 02:00N 35°36' W 006°30'2322.9 1022.3
2017-Oct-13 01:00N 35°48' W 006°06'2322.8 1022.9
2017-Oct-13 00:00N 36°00' W 005°42'1919.4 1024.0
2017-Oct-12 23:00N 36°00' W 005°18'2525.0 1025.3
2017-Oct-12 22:00N 36°06' W 004°48'1919.4 1025.2
2017-Oct-12 21:00N 36°06' W 004°24'2020.3 1025.3
2017-Oct-12 20:00N 36°12' W 004°00'2524.9 1025.3
2017-Oct-12 19:00N 36°18' W 003°30'1919.3 1025.0
2017-Oct-12 18:00N 36°18' W 003°06'2524.9 1024.7
2017-Oct-12 17:00N 36°24' W 002°36'2020.2 1024.6
2017-Oct-12 16:00N 36°30' W 002°12'2322.7 1024.7
2017-Oct-12 15:00N 36°42' W 001°48'1918.8 1024.8
2017-Oct-12 14:00N 36°54' W 001°30'2626.3 1025.1
2017-Oct-12 13:00N 37°12' W 001°06'1918.7 1025.5
2017-Oct-12 12:00N 37°24' W 000°48'2323.0 1026.0
2017-Oct-12 11:00N 37°42' W 000°30'2322.9 1026.9
2017-Oct-12 10:00N 38°00' W 000°12'2322.9 1026.8
2017-Oct-12 09:00N 38°18' E 000°06'2020.3 1026.2
2017-Oct-12 08:00N 38°36' E 000°18'2322.8 1025.3
2017-Oct-12 07:00N 38°54' E 000°36'2222.2 1024.7
2017-Oct-12 06:00N 39°06' E 001°00'1818.4 1024.1
2017-Oct-12 05:00N 39°18' E 001°18'2625.8 1024.0
2017-Oct-12 04:00N 39°36' E 001°42'1818.3 1023.6
2017-Oct-12 03:00N 39°48' E 002°00'2625.7 1023.4
2017-Oct-12 02:00N 40°06' E 002°24'1818.2 1023.5
2017-Oct-12 01:00N 40°18' E 002°42'2221.9 1024.6
2017-Oct-12 00:00N 40°30' E 003°06'2625.6 1024.5
2017-Oct-11 23:00N 40°48' E 003°30'2221.8 1024.1
2017-Oct-11 22:00N 41°00' E 003°54'2322.5 1023.9
2017-Oct-11 21:00N 41°18' E 004°12'2221.6 1023.6
2017-Oct-11 20:00N 41°30' E 004°36'2525.4 1023.4
2017-Oct-11 19:00N 41°48' E 005°00'1818.0 1023.0
2017-Oct-11 18:00N 42°00' E 005°18'2121.5 1023.2
2017-Oct-11 17:00N 42°12' E 005°42'2525.3 1023.0
2017-Oct-11 16:00N 42°30' E 006°06'1817.9 1023.0
2017-Oct-11 15:00N 42°42' E 006°24'2525.2 1022.5
2017-Oct-11 14:00N 43°00' E 006°48'2121.2 1022.2
2017-Oct-11 13:00N 43°12' E 007°12'2525.1 1022.7
2017-Oct-11 12:00N 43°30' E 007°36'2121.1 1023.3
2017-Oct-11 11:00N 43°42' E 008°00'2525.0 1023.8
2017-Oct-11 10:00N 44°00' E 008°24'2121.0 1024.1
2017-Oct-11 09:00N 44°12' E 008°48'13 0.7 1023.9
2017-Oct-10 16:00N 44°24' E 008°54'0 0.0 1019.6
2017-Oct-10 11:00N 44°24' E 008°54'0 0.0 1020.1
2017-Oct-10 10:00N 44°24' E 008°54'   1020.0
Track history (hours):
 
Tides and Currents Weather Stations Pressure Air Temp Water Temp Dewpoint Dewpoint Depression Visibility Wind Speed Wind Dir Waves Ship Positions

Callsign BAREU66 (name unknown)

Last reported at 2017-Oct-19 19:00 UTC. Time now 2017-Oct-19 19:58 UTC.
Position N 18°06' W 061°12'.

Barometer 1015.8 mb

Date/timePositionNaut miles runAvg speedWind from/ knotsBaromVisibWave heightAir tempDewpointWater temp
2017-Oct-19 19:00N 18°06' W 061°12'2423.6 1015.8
2017-Oct-19 18:00N 18°12' W 060°48'1818.1 1016.3
2017-Oct-19 17:00N 18°18' W 060°30'2625.7 1017.2
2017-Oct-19 16:00N 18°30' W 060°06'1818.1 1018.3
2017-Oct-19 15:00N 18°36' W 059°48'2423.5 1019.3
2017-Oct-19 14:00N 18°42' W 059°24'2120.8 1019.9
2017-Oct-19 13:00N 18°54' W 059°06'2323.5 1019.9
2017-Oct-19 12:00N 19°00' W 058°42'2323.5 1019.3
2017-Oct-19 11:00N 19°06' W 058°18'1818.0 1019.0
2017-Oct-19 10:00N 19°12' W 058°00'2625.6 1018.7
2017-Oct-19 09:00N 19°24' W 057°36'2323.4 1018.3
2017-Oct-19 08:00N 19°30' W 057°12'1818.0 1018.4
2017-Oct-19 07:00N 19°36' W 056°54'2323.4 1018.9
2017-Oct-19 06:00N 19°42' W 056°30'2323.4 1019.4
2017-Oct-19 05:00N 19°48' W 056°06'2120.7 1019.9
2017-Oct-19 04:00N 20°00' W 055°48'2323.3 1020.6
2017-Oct-19 03:00N 20°06' W 055°24'2323.3 1021.2
2017-Oct-19 02:00N 20°12' W 055°00'1817.9 1021.5
2017-Oct-19 01:00N 20°18' W 054°42'2323.3 1021.6
2017-Oct-19 00:00N 20°24' W 054°18'2525.5 1021.2
2017-Oct-18 23:00N 20°36' W 053°54'1817.9 1020.9
2017-Oct-18 22:00N 20°42' W 053°36'2323.2 1020.2
2017-Oct-18 21:00N 20°48' W 053°12'2323.2 1019.9
2017-Oct-18 20:00N 20°54' W 052°48'1817.8 1019.6
2017-Oct-18 19:00N 21°00' W 052°30'2525.4 1019.8
2017-Oct-18 18:00N 21°12' W 052°06'2323.2 1019.9
2017-Oct-18 17:00N 21°18' W 051°42'1817.8 1020.5
2017-Oct-18 16:00N 21°24' W 051°24'2323.1 1021.2
2017-Oct-18 15:00N 21°30' W 051°00'2323.1 1021.8
2017-Oct-18 14:00N 21°36' W 050°36'1817.8 1022.4
2017-Oct-18 13:00N 21°42' W 050°18'2323.1 1022.9
2017-Oct-18 12:00N 21°48' W 049°54'2323.1 1023.0
2017-Oct-18 11:00N 21°54' W 049°30'1817.7 1022.5
2017-Oct-18 10:00N 22°00' W 049°12'2323.0 1022.3
2017-Oct-18 09:00N 22°06' W 048°48'2323.0 1021.8
2017-Oct-18 08:00N 22°12' W 048°24'2323.0 1021.8
2017-Oct-18 07:00N 22°18' W 048°00'2323.0 1021.8
2017-Oct-18 06:00N 22°24' W 047°36'1817.7 1021.8
2017-Oct-18 05:00N 22°30' W 047°18'2323.0 1022.4
2017-Oct-18 04:00N 22°36' W 046°54'2525.2 1022.9
2017-Oct-18 03:00N 22°48' W 046°30'2322.9 1023.4
2017-Oct-18 02:00N 22°54' W 046°06'2222.1 1023.6
2017-Oct-18 01:00N 22°54' W 045°42'2525.1 1024.1
2017-Oct-18 00:00N 23°06' W 045°18'1817.6 1024.3
2017-Oct-17 23:00N 23°12' W 045°00'2322.9 1024.4
2017-Oct-17 22:00N 23°18' W 044°36'2322.8 1024.1
2017-Oct-17 21:00N 23°24' W 044°12'2222.0 1023.6
2017-Oct-17 20:00N 23°24' W 043°48'2322.8 1023.4
2017-Oct-17 19:00N 23°30' W 043°24'2322.8 1023.4
2017-Oct-17 18:00N 23°36' W 043°00'2322.8 1023.4
2017-Oct-17 17:00N 23°42' W 042°36'1817.5 1023.6
2017-Oct-17 16:00N 23°48' W 042°18'2322.8 1024.4
2017-Oct-17 15:00N 23°54' W 041°54'2322.7 1025.1
2017-Oct-17 14:00N 24°00' W 041°30'2322.7 1025.9
2017-Oct-17 13:00N 24°06' W 041°06'2322.7 1026.3
2017-Oct-17 12:00N 24°12' W 040°42'2322.7 1025.8
2017-Oct-17 11:00N 24°18' W 040°18'2322.7 1026.0
2017-Oct-17 10:00N 24°24' W 039°54'2221.9 1025.5
2017-Oct-17 09:00N 24°24' W 039°30'2322.7 1025.0
2017-Oct-17 08:00N 24°30' W 039°06'2322.6 1024.7
2017-Oct-17 07:00N 24°36' W 038°42'2322.6 1024.6
2017-Oct-17 06:00N 24°42' W 038°18'2221.8 1024.6
2017-Oct-17 05:00N 24°42' W 037°54'1717.4 1024.9
2017-Oct-17 04:00N 24°48' W 037°36'2322.6 1025.3
2017-Oct-17 03:00N 24°54' W 037°12'2322.6 1025.7
2017-Oct-17 02:00N 25°00' W 036°48'2322.6 1025.9
2017-Oct-17 01:00N 25°06' W 036°24'2221.7 1026.0
2017-Oct-17 00:00N 25°06' W 036°00'2322.5 1026.1
2017-Oct-16 23:00N 25°12' W 035°36'2322.5 1026.1
2017-Oct-16 22:00N 25°18' W 035°12'2322.5 1025.8
2017-Oct-16 21:00N 25°24' W 034°48'2221.7 1025.5
2017-Oct-16 20:00N 25°24' W 034°24'2222.5 1025.1
2017-Oct-16 19:00N 25°30' W 034°00'2222.5 1024.6
2017-Oct-16 18:00N 25°36' W 033°36'2221.6 1024.6
2017-Oct-16 17:00N 25°36' W 033°12'2222.5 1024.8
2017-Oct-16 16:00N 25°42' W 032°48'4421.8 1024.8
2017-Oct-16 14:00N 25°48' W 032°00'2222.4 1025.5
2017-Oct-16 13:00N 25°54' W 031°36'2222.4 1025.8
2017-Oct-16 12:00N 26°00' W 031°12'2221.6 1026.3
2017-Oct-16 11:00N 26°00' W 030°48'2222.4 1025.7
2017-Oct-16 10:00N 26°06' W 030°24'2221.6 1025.0
2017-Oct-16 09:00N 26°06' W 030°00'2222.4 1024.2
2017-Oct-16 08:00N 26°12' W 029°36'2222.3 1023.6
2017-Oct-16 07:00N 26°18' W 029°12'2221.5 1023.1
2017-Oct-16 06:00N 26°18' W 028°48'2222.3 1022.7
2017-Oct-16 05:00N 26°24' W 028°24'2121.5 1022.2
2017-Oct-16 04:00N 26°24' W 028°00'2222.3 1022.2
2017-Oct-16 03:00N 26°30' W 027°36'2121.5 1022.4
2017-Oct-16 02:00N 26°30' W 027°12'2222.3 1022.6
2017-Oct-16 01:00N 26°36' W 026°48'2121.5 1022.6
2017-Oct-16 00:00N 26°36' W 026°24'2727.5 1022.6
2017-Oct-15 23:00N 26°42' W 025°54'2121.4 1022.6
2017-Oct-15 22:00N 26°42' W 025°30'2222.3 1022.3
2017-Oct-15 21:00N 26°48' W 025°06'2121.4 1021.5
2017-Oct-15 20:00N 26°48' W 024°42'2121.4 1020.8
2017-Oct-15 19:00N 26°48' W 024°18'2222.2 1020.2
2017-Oct-15 18:00N 26°54' W 023°54'2121.4 1019.9
2017-Oct-15 17:00N 26°54' W 023°30'2222.2 1019.6
2017-Oct-15 16:00N 27°00' W 023°06'2121.4 1019.7
2017-Oct-15 15:00N 27°00' W 022°42'2121.4 1019.8
2017-Oct-15 14:00N 27°00' W 022°18'2727.4 1019.9
2017-Oct-15 13:00N 27°06' W 021°48'2121.4 1020.4
2017-Oct-15 12:00N 27°06' W 021°24'2121.4 1020.7
2017-Oct-15 11:00N 27°06' W 021°00'2222.2 1020.6
2017-Oct-15 10:00N 27°12' W 020°36'2121.3 1020.1
2017-Oct-15 09:00N 27°12' W 020°12'2121.3 1019.5
2017-Oct-15 08:00N 27°12' W 019°48'2222.2 1018.7
2017-Oct-15 07:00N 27°18' W 019°24'2121.3 1018.0
2017-Oct-15 06:00N 27°18' W 019°00'2121.3 1017.4
2017-Oct-15 05:00N 27°18' W 018°36'2121.3 1016.6
2017-Oct-15 04:00N 27°18' W 018°12'2222.1 1016.6
2017-Oct-15 03:00N 27°24' W 017°48'2121.3 1017.2
2017-Oct-15 02:00N 27°24' W 017°24'2222.1 1017.6
2017-Oct-15 01:00N 27°30' W 017°00'2121.3 1018.0
2017-Oct-15 00:00N 27°30' W 016°36'2222.1 1018.4
2017-Oct-14 23:00N 27°36' W 016°12'2121.3 1018.7
2017-Oct-14 22:00N 27°36' W 015°48'2222.1 1019.0
2017-Oct-14 21:00N 27°42' W 015°24'1918.8 1018.7
2017-Oct-14 20:00N 28°00' W 015°18'8 4.0 1018.7
2017-Oct-14 18:00N 28°06' W 015°24'0 0.0 1019.1
2017-Oct-14 08:00N 28°06' W 015°24'8 8.0 1018.9
2017-Oct-14 07:00N 28°12' W 015°18'2019.9 1017.9
2017-Oct-14 06:00N 28°24' W 015°00'2424.0 1017.1
2017-Oct-14 05:00N 28°42' W 014°42'1616.0 1017.3
2017-Oct-14 04:00N 28°54' W 014°30'2423.9 1016.7
2017-Oct-14 03:00N 29°12' W 014°12'2423.9 1018.0
2017-Oct-14 02:00N 29°30' W 013°54'2423.8 1018.7
2017-Oct-14 01:00N 29°48' W 013°36'2019.7 1019.4
2017-Oct-14 00:00N 30°00' W 013°18'2423.8 1019.9
2017-Oct-13 23:00N 30°18' W 013°00'2019.6 1019.9
2017-Oct-13 22:00N 30°30' W 012°42'2423.7 1020.2
2017-Oct-13 21:00N 30°48' W 012°24'2019.6 1019.9
2017-Oct-13 20:00N 31°00' W 012°06'2423.7 1020.2
2017-Oct-13 19:00N 31°18' W 011°48'1919.5 1020.3
2017-Oct-13 18:00N 31°30' W 011°30'2423.6 1020.6
2017-Oct-13 17:00N 31°48' W 011°12'2423.6 1020.7
2017-Oct-13 16:00N 32°06' W 010°54'1919.4 1020.9
2017-Oct-13 15:00N 32°18' W 010°36'2423.6 1020.8
2017-Oct-13 14:00N 32°36' W 010°18'1919.3 1020.9
2017-Oct-13 13:00N 32°48' W 010°00'2323.5 1021.4
2017-Oct-13 12:00N 33°06' W 009°42'1919.3 1022.0
2017-Oct-13 11:00N 33°18' W 009°24'2323.4 1022.4
2017-Oct-13 10:00N 33°36' W 009°06'1919.2 1022.5
2017-Oct-13 09:00N 33°48' W 008°48'2323.4 1022.6
2017-Oct-13 08:00N 34°06' W 008°30'2323.4 1022.6
2017-Oct-13 07:00N 34°24' W 008°12'1919.1 1021.9
2017-Oct-13 06:00N 34°36' W 007°54'2323.3 1022.0
2017-Oct-13 05:00N 34°54' W 007°36'2726.6 1022.2
2017-Oct-13 04:00N 35°12' W 007°12'1919.0 1021.8
2017-Oct-13 03:00N 35°24' W 006°54'2322.9 1021.7
2017-Oct-13 02:00N 35°36' W 006°30'2322.9 1022.3
2017-Oct-13 01:00N 35°48' W 006°06'2322.8 1022.9
2017-Oct-13 00:00N 36°00' W 005°42'1919.4 1024.0
2017-Oct-12 23:00N 36°00' W 005°18'2525.0 1025.3
2017-Oct-12 22:00N 36°06' W 004°48'1919.4 1025.2
2017-Oct-12 21:00N 36°06' W 004°24'2020.3 1025.3
2017-Oct-12 20:00N 36°12' W 004°00'2524.9 1025.3
2017-Oct-12 19:00N 36°18' W 003°30'1919.3 1025.0
2017-Oct-12 18:00N 36°18' W 003°06'2524.9 1024.7
2017-Oct-12 17:00N 36°24' W 002°36'2020.2 1024.6
2017-Oct-12 16:00N 36°30' W 002°12'2322.7 1024.7
2017-Oct-12 15:00N 36°42' W 001°48'1918.8 1024.8
2017-Oct-12 14:00N 36°54' W 001°30'2626.3 1025.1
2017-Oct-12 13:00N 37°12' W 001°06'1918.7 1025.5
2017-Oct-12 12:00N 37°24' W 000°48'2323.0 1026.0
2017-Oct-12 11:00N 37°42' W 000°30'2322.9 1026.9
2017-Oct-12 10:00N 38°00' W 000°12'2322.9 1026.8
2017-Oct-12 09:00N 38°18' E 000°06'2020.3 1026.2
2017-Oct-12 08:00N 38°36' E 000°18'2322.8 1025.3
2017-Oct-12 07:00N 38°54' E 000°36'2222.2 1024.7
2017-Oct-12 06:00N 39°06' E 001°00'1818.4 1024.1
2017-Oct-12 05:00N 39°18' E 001°18'2625.8 1024.0
2017-Oct-12 04:00N 39°36' E 001°42'1818.3 1023.6
2017-Oct-12 03:00N 39°48' E 002°00'2625.7 1023.4
2017-Oct-12 02:00N 40°06' E 002°24'1818.2 1023.5
2017-Oct-12 01:00N 40°18' E 002°42'2221.9 1024.6
2017-Oct-12 00:00N 40°30' E 003°06'2625.6 1024.5
2017-Oct-11 23:00N 40°48' E 003°30'2221.8 1024.1
2017-Oct-11 22:00N 41°00' E 003°54'2322.5 1023.9
2017-Oct-11 21:00N 41°18' E 004°12'2221.6 1023.6
2017-Oct-11 20:00N 41°30' E 004°36'2525.4 1023.4
2017-Oct-11 19:00N 41°48' E 005°00'1818.0 1023.0
2017-Oct-11 18:00N 42°00' E 005°18'2121.5 1023.2
2017-Oct-11 17:00N 42°12' E 005°42'2525.3 1023.0
2017-Oct-11 16:00N 42°30' E 006°06'1817.9 1023.0
2017-Oct-11 15:00N 42°42' E 006°24'2525.2 1022.5
2017-Oct-11 14:00N 43°00' E 006°48'2121.2 1022.2
2017-Oct-11 13:00N 43°12' E 007°12'2525.1 1022.7
2017-Oct-11 12:00N 43°30' E 007°36'2121.1 1023.3
2017-Oct-11 11:00N 43°42' E 008°00'2525.0 1023.8
2017-Oct-11 10:00N 44°00' E 008°24'2121.0 1024.1
2017-Oct-11 09:00N 44°12' E 008°48'13 0.7 1023.9
2017-Oct-10 16:00N 44°24' E 008°54'0 0.0 1019.6
2017-Oct-10 11:00N 44°24' E 008°54'0 0.0 1020.1
2017-Oct-10 10:00N 44°24' E 008°54'   1020.0

Dump ship's entire track history